Montville, Connecticut
Current Conditions -  °F | °C
As of 7:56 AM on Tuesday 21 Oct 2014 (Local Time) from KGON Reporting Station
Broken Clouds Broken Clouds  
Wind Chill: 47°   Ceiling: 4900
Heat Index: 49°   Visibility: 9mi
Dew Point: 49°   Wind: 5mph
Humidity: 100%   Direction: 360°N
Pressure: 29.95"   Gusts: NA
Location:  41.45°N, 72.14°W
Report Text: KGON 211156Z 36004KT 9SM SCT035 BKN049 09/09 A2995 RMK AO2 SLP140 60000 T00940094 10117 20089 53004
Loading
Personal Weather Stations






























Interactive Weather Map
Tropical Storm Tracking
New forecast layout! Learn more

10-Day Weather Forecast

Advertisements
Track Severe Weather on mobile